createdAt,value
2019-03-05T00:02:48.885Z,95.60
2019-03-05T00:05:51.154Z,96.50
2019-03-05T00:08:53.468Z,95.80
2019-03-05T00:11:55.739Z,96.90
2019-03-05T00:14:58.040Z,96.50
2019-03-05T00:18:00.345Z,97.00
2019-03-05T00:21:02.692Z,98.10
2019-03-05T00:24:16.313Z,97.80
2019-03-05T00:27:18.600Z,97.10
2019-03-05T00:30:27.055Z,98.70
2019-03-05T00:33:46.375Z,98.00
2019-03-05T00:36:55.461Z,98.90
2019-03-05T00:40:10.222Z,99.10
2019-03-05T00:43:19.741Z,98.80
2019-03-05T00:48:32.827Z,99.90
2019-03-05T00:52:27.299Z,98.60
2019-03-05T00:55:40.975Z,99.60
2019-03-05T00:58:49.251Z,99.20
2019-03-05T01:02:05.911Z,99.40
2019-03-05T01:05:21.792Z,99.10
2019-03-05T01:08:24.155Z,99.90
2019-03-05T01:11:27.395Z,98.90
2019-03-05T01:14:29.980Z,99.20
2019-03-05T01:17:32.230Z,99.10
2019-03-05T01:20:34.525Z,98.80
2019-03-05T01:23:36.822Z,98.90
2019-03-05T01:26:39.144Z,99.00
2019-03-05T01:29:42.575Z,98.40
2019-03-05T01:32:49.343Z,98.60
2019-03-05T01:35:55.422Z,98.40
2019-03-05T01:39:33.301Z,98.10
2019-03-05T01:42:35.568Z,98.80
2019-03-05T01:45:37.936Z,98.80
2019-03-05T01:48:40.182Z,98.50
2019-03-05T01:51:42.456Z,99.10
2019-03-05T01:54:44.666Z,99.10
2019-03-05T01:57:46.955Z,99.50
2019-03-05T02:00:49.196Z,99.90
2019-03-05T02:03:51.480Z,99.70
2019-03-05T02:06:54.323Z,99.30
2019-03-05T02:09:56.695Z,99.90
2019-03-05T02:12:58.971Z,99.90
2019-03-05T02:16:01.316Z,99.90
2019-03-05T02:19:47.648Z,99.90
2019-03-05T02:22:58.862Z,99.90
2019-03-05T02:26:09.831Z,99.90
2019-03-05T02:29:28.131Z,99.90
2019-03-05T02:32:44.032Z,99.90
2019-03-05T02:35:59.056Z,99.90
2019-03-05T02:39:40.634Z,99.90
2019-03-05T02:42:53.226Z,99.90
2019-03-05T02:46:40.720Z,99.90
2019-03-05T02:50:31.812Z,99.90
2019-03-05T02:53:43.451Z,99.90
2019-03-05T02:56:55.335Z,99.90
2019-03-05T02:59:57.570Z,99.90
2019-03-05T03:03:04.397Z,99.90
2019-03-05T03:06:11.228Z,99.90
2019-03-05T03:09:58.692Z,99.90
2019-03-05T03:13:01.005Z,99.90
2019-03-05T03:16:03.303Z,99.90
2019-03-05T03:19:05.584Z,99.90
2019-03-05T03:22:07.871Z,99.90
2019-03-05T03:25:11.820Z,99.90
2019-03-05T03:28:14.092Z,99.90
2019-03-05T03:31:16.397Z,99.90
2019-03-05T03:34:18.629Z,99.90
2019-03-05T03:37:20.948Z,99.70
2019-03-05T03:40:23.673Z,99.70
2019-03-05T03:43:25.936Z,99.60
2019-03-05T03:46:28.184Z,99.50
2019-03-05T03:49:30.454Z,99.50
2019-03-05T03:52:32.696Z,99.90
2019-03-05T03:55:35.061Z,99.90
2019-03-05T03:58:37.396Z,99.90
2019-03-05T04:01:39.717Z,99.90
2019-03-05T04:04:41.981Z,99.90
2019-03-05T04:07:44.252Z,99.90
2019-03-05T04:10:46.497Z,99.30
2019-03-05T04:13:48.775Z,98.90
2019-03-05T04:16:51.044Z,98.60
2019-03-05T04:19:53.303Z,99.10
2019-03-05T04:22:55.567Z,98.40
2019-03-05T04:25:57.804Z,98.10
2019-03-05T04:29:00.038Z,97.90
2019-03-05T04:32:02.278Z,98.60
2019-03-05T04:35:06.418Z,97.00
2019-03-05T04:38:08.640Z,95.50
2019-03-05T04:41:10.959Z,95.40
2019-03-05T04:44:13.279Z,95.30
2019-03-05T04:47:15.770Z,95.50
2019-03-05T04:50:25.426Z,94.90
2019-03-05T04:53:27.719Z,96.20
2019-03-05T04:56:29.979Z,95.30
2019-03-05T04:59:32.227Z,95.30
2019-03-05T05:02:34.479Z,95.80
2019-03-05T05:05:36.817Z,96.30
2019-03-05T05:08:39.668Z,95.90
2019-03-05T05:11:42.475Z,95.90
2019-03-05T05:14:44.715Z,96.40
2019-03-05T05:17:46.984Z,96.20
2019-03-05T05:20:49.271Z,95.90
2019-03-05T05:23:51.564Z,95.70
2019-03-05T05:26:53.815Z,95.50
2019-03-05T05:29:56.791Z,95.10
2019-03-05T05:32:59.103Z,94.50
2019-03-05T05:36:01.403Z,94.50
2019-03-05T05:39:05.316Z,95.10
2019-03-05T05:42:07.587Z,95.00
2019-03-05T05:45:12.987Z,94.30
2019-03-05T05:48:15.292Z,94.40
2019-03-05T05:51:17.590Z,94.90
2019-03-05T05:54:20.001Z,95.10
2019-03-05T05:57:22.251Z,94.50
2019-03-05T06:00:24.575Z,94.80
2019-03-05T06:03:26.820Z,95.10
2019-03-05T06:06:29.238Z,95.20
2019-03-05T06:09:31.480Z,95.40
2019-03-05T06:12:33.747Z,94.40
2019-03-05T06:15:36.118Z,94.60
2019-03-05T06:18:38.344Z,94.50
2019-03-05T06:21:40.643Z,94.60
2019-03-05T06:24:42.863Z,94.60
2019-03-05T06:27:45.142Z,94.10
2019-03-05T06:30:47.424Z,94.30
2019-03-05T06:33:49.691Z,95.00
2019-03-05T06:36:53.717Z,95.20
2019-03-05T06:39:55.967Z,94.50
2019-03-05T06:42:58.233Z,94.10
2019-03-05T06:46:00.511Z,94.20
2019-03-05T06:49:02.815Z,93.80
2019-03-05T06:52:05.187Z,93.40
2019-03-05T06:55:08.159Z,93.90
2019-03-05T06:58:11.890Z,93.20
2019-03-05T07:01:12.848Z,93.00
2019-03-05T07:04:15.146Z,93.70
2019-03-05T07:07:17.425Z,92.70
2019-03-05T07:10:29.402Z,92.20
2019-03-05T07:13:32.177Z,92.20
2019-03-05T07:16:44.331Z,91.50
2019-03-05T07:19:58.212Z,91.60
2019-03-05T07:23:09.052Z,90.60
2019-03-05T07:26:11.364Z,90.20
2019-03-05T07:29:13.689Z,89.70
2019-03-05T07:32:15.942Z,90.00
2019-03-05T07:35:21.669Z,88.90
2019-03-05T07:38:23.927Z,89.00
2019-03-05T07:41:26.160Z,89.80
2019-03-05T07:44:28.359Z,89.80
2019-03-05T07:47:30.555Z,87.70
2019-03-05T07:50:32.827Z,86.70
2019-03-05T07:53:35.075Z,88.10
2019-03-05T07:56:37.383Z,88.20
2019-03-05T07:59:39.684Z,85.70
2019-03-05T08:02:41.932Z,87.10
2019-03-05T08:05:47.257Z,87.60
2019-03-05T08:09:58.652Z,87.70
2019-03-05T08:13:10.107Z,87.80
2019-03-05T08:16:21.445Z,85.70
2019-03-05T08:19:23.781Z,84.20
2019-03-05T08:22:26.823Z,84.30
2019-03-05T08:25:29.173Z,83.70
2019-03-05T08:28:31.433Z,84.50
2019-03-05T08:31:34.167Z,83.90
2019-03-05T08:34:36.467Z,81.00
2019-03-05T08:37:38.707Z,81.60
2019-03-05T08:40:41.016Z,81.60
2019-03-05T08:43:43.252Z,78.80
2019-03-05T08:46:45.583Z,77.20
2019-03-05T08:49:47.823Z,77.10
2019-03-05T08:52:50.074Z,76.20
2019-03-05T08:55:54.363Z,74.90
2019-03-05T08:58:57.900Z,74.60
2019-03-05T09:02:00.781Z,74.50
2019-03-05T09:05:03.110Z,73.80
2019-03-05T09:08:05.358Z,73.10
2019-03-05T09:11:07.681Z,71.90
2019-03-05T09:14:09.976Z,72.20
2019-03-05T09:17:12.367Z,74.00
2019-03-05T09:20:15.379Z,72.50
2019-03-05T09:23:17.661Z,71.00
2019-03-05T09:26:19.940Z,70.30
2019-03-05T09:29:22.196Z,70.30
2019-03-05T09:32:24.436Z,70.10
2019-03-05T09:35:27.985Z,69.60
2019-03-05T09:38:30.439Z,69.50
2019-03-05T09:41:32.711Z,68.30
2019-03-05T09:44:34.975Z,69.50
2019-03-05T09:47:37.208Z,69.00
2019-03-05T09:50:39.455Z,70.20
2019-03-05T09:53:42.044Z,69.90
2019-03-05T09:56:44.568Z,70.90
2019-03-05T09:59:47.060Z,69.70
2019-03-05T10:02:49.589Z,69.80
2019-03-05T10:05:52.150Z,69.60
2019-03-05T10:08:54.607Z,70.70
2019-03-05T10:11:57.081Z,69.30
2019-03-05T10:14:59.263Z,68.60
2019-03-05T10:18:11.730Z,67.70
2019-03-05T10:21:03.912Z,68.40
2019-03-05T10:24:10.502Z,67.10
2019-03-05T10:27:10.428Z,66.80
2019-03-05T10:30:24.347Z,66.20
2019-03-05T10:33:17.683Z,67.00
2019-03-05T10:36:20.177Z,66.60
2019-03-05T10:39:30.460Z,65.60
2019-03-05T10:42:31.784Z,64.00
2019-03-05T10:45:31.145Z,61.90
2019-03-05T10:48:33.566Z,62.50
2019-03-05T10:51:36.127Z,62.10
2019-03-05T10:54:39.115Z,60.30
2019-03-05T10:57:44.229Z,59.20
2019-03-05T11:00:45.507Z,57.90
2019-03-05T11:03:47.884Z,58.60
2019-03-05T11:06:50.622Z,59.60
2019-03-05T11:09:53.468Z,57.90
2019-03-05T11:12:56.229Z,58.50
2019-03-05T11:15:58.593Z,59.00
2019-03-05T11:19:00.884Z,56.80
2019-03-05T11:22:03.883Z,56.50
2019-03-05T11:25:06.991Z,57.00
2019-03-05T11:28:09.325Z,55.50
2019-03-05T11:31:11.675Z,56.10
2019-03-05T11:34:13.956Z,55.20
2019-03-05T11:37:16.254Z,56.20
2019-03-05T11:40:21.314Z,56.10
2019-03-05T11:43:20.904Z,59.20
2019-03-05T11:46:23.278Z,57.80
2019-03-05T11:49:25.511Z,57.50
2019-03-05T11:52:28.352Z,57.50
2019-03-05T11:55:30.667Z,57.70
2019-03-05T11:58:32.953Z,55.70
2019-03-05T12:01:40.577Z,56.30
2019-03-05T12:04:42.828Z,56.30
2019-03-05T12:07:46.171Z,56.60
2019-03-05T12:10:47.442Z,56.80
2019-03-05T12:13:49.819Z,55.90
2019-03-05T12:16:52.059Z,55.90
2019-03-05T12:19:54.346Z,56.20
2019-03-05T12:22:56.647Z,56.90
2019-03-05T12:25:58.969Z,56.40
2019-03-05T12:29:01.749Z,56.80
2019-03-05T12:32:04.538Z,57.10
2019-03-05T12:35:07.024Z,55.80
2019-03-05T12:38:09.246Z,55.60
2019-03-05T12:41:11.602Z,55.00
2019-03-05T12:44:14.044Z,55.40
2019-03-05T12:47:17.259Z,54.90
2019-03-05T12:50:19.851Z,55.50
2019-03-05T12:53:22.131Z,55.00
2019-03-05T12:56:24.504Z,55.50
2019-03-05T12:59:26.712Z,55.00
2019-03-05T13:02:28.969Z,53.60
2019-03-05T13:05:31.299Z,53.40
2019-03-05T13:08:33.595Z,54.10
2019-03-05T13:11:35.875Z,52.70
2019-03-05T13:14:42.335Z,52.90
2019-03-05T13:17:40.875Z,53.20
2019-03-05T13:20:43.893Z,53.80
2019-03-05T13:23:46.135Z,54.30
2019-03-05T13:26:48.472Z,55.80
2019-03-05T13:29:50.774Z,55.00
2019-03-05T13:32:54.141Z,55.50
2019-03-05T13:35:55.446Z,55.30
2019-03-05T13:38:57.815Z,55.70
2019-03-05T13:42:00.134Z,54.00
2019-03-05T13:45:05.303Z,54.70
2019-03-05T13:48:14.771Z,54.00
2019-03-05T13:51:30.787Z,53.60
2019-03-05T13:54:48.527Z,54.20
2019-03-05T13:57:59.343Z,54.10
2019-03-05T14:01:01.667Z,54.50
2019-03-05T14:04:08.747Z,53.60
2019-03-05T14:07:22.135Z,53.90
2019-03-05T14:10:26.227Z,53.40
2019-03-05T14:13:27.873Z,53.70
2019-03-05T14:16:30.386Z,53.20
2019-03-05T14:19:32.667Z,53.80
2019-03-05T14:22:34.943Z,53.30
2019-03-05T14:25:38.297Z,53.80
2019-03-05T14:28:40.703Z,54.20
2019-03-05T14:31:43.082Z,54.20
2019-03-05T14:34:57.753Z,54.90
2019-03-05T14:38:00.847Z,54.80
2019-03-05T14:41:04.584Z,54.80
2019-03-05T14:44:06.885Z,55.30
2019-03-05T14:47:09.856Z,55.30
2019-03-05T14:50:12.842Z,55.80
2019-03-05T14:53:15.044Z,56.00
2019-03-05T14:56:17.667Z,56.60
2019-03-05T14:59:19.966Z,57.90
2019-03-05T15:02:22.379Z,58.70
2019-03-05T15:05:25.512Z,58.50
2019-03-05T15:08:27.821Z,58.30
2019-03-05T15:11:30.117Z,58.80
2019-03-05T15:14:32.431Z,58.80
2019-03-05T15:17:34.715Z,58.40
2019-03-05T15:20:38.850Z,57.80
2019-03-05T15:23:41.475Z,57.10
2019-03-05T15:26:43.720Z,57.60
2019-03-05T15:29:46.910Z,57.30
2019-03-05T15:32:50.114Z,57.90
2019-03-05T15:35:52.520Z,57.80
2019-03-05T15:38:55.064Z,58.40
2019-03-05T15:41:57.407Z,58.90
2019-03-05T15:45:00.356Z,58.70
2019-03-05T15:48:03.225Z,61.00
2019-03-05T15:51:05.514Z,65.90
2019-03-05T15:54:07.795Z,66.90
2019-03-05T15:57:10.116Z,68.60
2019-03-05T16:00:15.732Z,70.50
2019-03-05T16:03:18.078Z,72.00
2019-03-05T16:06:20.877Z,72.10
2019-03-05T16:09:24.008Z,72.90
2019-03-05T16:12:26.463Z,74.20
2019-03-05T16:15:28.789Z,73.80
2019-03-05T16:18:31.060Z,73.30
2019-03-05T16:21:33.310Z,74.00
2019-03-05T16:24:37.482Z,74.20
2019-03-05T16:27:40.614Z,74.30
2019-03-05T16:30:50.648Z,74.50
2019-03-05T16:33:57.465Z,76.00
2019-03-05T16:37:09.251Z,77.50
2019-03-05T16:40:19.427Z,81.20
2019-03-05T16:43:32.184Z,82.60
2019-03-05T16:46:41.004Z,84.70
2019-03-05T16:49:48.663Z,90.60
2019-03-05T16:52:56.493Z,92.20
2019-03-05T16:56:14.288Z,93.80
2019-03-05T16:59:23.235Z,93.60
2019-03-05T17:02:31.091Z,94.10
2019-03-05T17:05:41.007Z,93.80
2019-03-05T17:08:48.791Z,95.80
2019-03-05T17:11:57.506Z,95.00
2019-03-05T17:14:59.763Z,98.90
2019-03-05T17:18:02.011Z,99.90
2019-03-05T17:21:04.292Z,99.90
2019-03-05T17:24:06.546Z,99.90
2019-03-05T17:27:08.787Z,99.90
2019-03-05T17:30:12.605Z,99.90
2019-03-05T17:33:14.876Z,99.90
2019-03-05T17:36:17.225Z,99.90
2019-03-05T17:39:21.566Z,99.90
2019-03-05T17:42:23.880Z,99.90
2019-03-05T17:45:26.232Z,99.90
2019-03-05T17:48:28.468Z,99.90
2019-03-05T17:51:31.097Z,99.90
2019-03-05T17:54:32.991Z,99.90
2019-03-05T17:57:35.254Z,99.90
2019-03-05T18:00:37.544Z,99.90
2019-03-05T18:03:39.785Z,99.90
2019-03-05T18:06:42.032Z,99.90
2019-03-05T18:09:44.276Z,99.90
2019-03-05T18:12:46.570Z,99.90
2019-03-05T18:15:48.801Z,99.90
2019-03-05T18:18:51.116Z,99.90
2019-03-05T18:21:53.553Z,99.90
2019-03-05T18:24:55.992Z,99.90
2019-03-05T18:27:58.464Z,99.90
2019-03-05T18:31:01.096Z,99.90
2019-03-05T18:34:03.480Z,99.90
2019-03-05T18:37:06.107Z,99.90
2019-03-05T18:40:10.639Z,99.90
2019-03-05T18:43:13.675Z,99.90
2019-03-05T18:46:15.937Z,99.90
2019-03-05T18:49:39.567Z,99.90
2019-03-05T18:52:43.416Z,99.90
2019-03-05T18:55:58.666Z,99.90
2019-03-05T18:59:15.972Z,99.90
2019-03-05T19:02:22.429Z,99.90
2019-03-05T19:05:39.730Z,99.90
2019-03-05T19:09:00.873Z,99.90
2019-03-05T19:12:24.059Z,99.90
2019-03-05T19:15:30.468Z,99.90
2019-03-05T19:18:37.670Z,99.90
2019-03-05T19:21:47.132Z,99.90
2019-03-05T19:24:55.210Z,99.90
2019-03-05T19:27:57.960Z,99.90
2019-03-05T19:31:02.208Z,99.90
2019-03-05T19:34:04.648Z,99.90
2019-03-05T19:37:06.976Z,99.90
2019-03-05T19:40:11.749Z,99.90
2019-03-05T19:43:14.078Z,99.90
2019-03-05T19:46:16.415Z,99.90
2019-03-05T19:49:18.736Z,99.90
2019-03-05T19:52:21.021Z,99.90
2019-03-05T19:55:23.343Z,99.90
2019-03-05T19:58:25.598Z,99.90
2019-03-05T20:01:32.659Z,99.90
2019-03-05T20:04:34.992Z,99.90
2019-03-05T20:07:37.393Z,99.90
2019-03-05T20:10:39.718Z,99.90
2019-03-05T20:13:41.979Z,99.90
2019-03-05T20:16:44.235Z,99.90
2019-03-05T20:19:46.451Z,99.90
2019-03-05T20:22:48.705Z,99.90
2019-03-05T20:25:51.052Z,99.90
2019-03-05T20:28:53.361Z,99.90
2019-03-05T20:31:55.633Z,99.90
2019-03-05T20:34:57.871Z,99.90
2019-03-05T20:38:00.155Z,99.90
2019-03-05T20:41:02.418Z,99.90
2019-03-05T20:44:04.721Z,99.90
2019-03-05T20:47:07.020Z,99.90
2019-03-05T20:50:10.282Z,99.90
2019-03-05T20:53:12.595Z,99.90
2019-03-05T20:56:15.385Z,99.90
2019-03-05T20:59:17.946Z,99.90
2019-03-05T21:02:20.325Z,99.90
2019-03-05T21:05:24.099Z,99.90
2019-03-05T21:08:26.378Z,99.90
2019-03-05T21:11:28.656Z,99.90
2019-03-05T21:14:30.899Z,99.90
2019-03-05T21:17:33.159Z,99.90
2019-03-05T21:20:35.449Z,99.90
2019-03-05T21:23:37.693Z,99.90
2019-03-05T21:26:39.980Z,99.90
2019-03-05T21:29:42.208Z,99.90
2019-03-05T21:32:44.661Z,99.90
2019-03-05T21:35:46.906Z,99.90
2019-03-05T21:38:49.194Z,99.90
2019-03-05T21:41:51.433Z,99.90
2019-03-05T21:44:53.663Z,99.90
2019-03-05T21:47:55.954Z,99.90
2019-03-05T21:50:58.205Z,99.90
2019-03-05T21:54:00.506Z,99.90
2019-03-05T21:57:02.772Z,99.90
2019-03-05T22:00:07.848Z,99.90
2019-03-05T22:03:10.203Z,99.90
2019-03-05T22:06:12.484Z,99.90
2019-03-05T22:09:14.720Z,99.90
2019-03-05T22:12:17.005Z,99.90
2019-03-05T22:15:19.402Z,99.90
2019-03-05T22:18:21.666Z,99.90
2019-03-05T22:21:23.928Z,99.90
2019-03-05T22:24:26.163Z,99.90
2019-03-05T22:27:28.588Z,99.90
2019-03-05T22:30:30.931Z,99.90
2019-03-05T22:33:33.471Z,99.90
2019-03-05T22:36:35.752Z,99.90
2019-03-05T22:39:38.007Z,99.90
2019-03-05T22:42:40.276Z,99.90
2019-03-05T22:45:42.647Z,99.90
2019-03-05T22:48:44.916Z,99.90
2019-03-05T22:51:47.401Z,99.90
2019-03-05T22:54:50.145Z,99.90
2019-03-05T22:57:52.399Z,99.90
2019-03-05T23:01:03.028Z,99.90
2019-03-05T23:04:05.775Z,99.90
2019-03-05T23:07:08.081Z,99.90
2019-03-05T23:10:10.443Z,99.90
2019-03-05T23:13:12.712Z,99.90
2019-03-05T23:16:15.007Z,99.90
2019-03-05T23:19:17.341Z,99.90
2019-03-05T23:22:19.659Z,99.90
2019-03-05T23:25:22.013Z,99.90
2019-03-05T23:28:24.244Z,99.90
2019-03-05T23:31:26.595Z,99.90
2019-03-05T23:34:28.844Z,99.90
2019-03-05T23:37:31.134Z,99.90
2019-03-05T23:40:33.415Z,99.90
2019-03-05T23:43:35.779Z,99.90
2019-03-05T23:46:38.013Z,99.90
2019-03-05T23:49:40.253Z,99.90
2019-03-05T23:52:42.547Z,99.90
2019-03-05T23:55:44.872Z,99.90
2019-03-05T23:58:47.132Z,99.90
